sensor_id;sensor_type;location;lat;lon;timestamp;pressure;altitude;pressure_sealevel;temperature;humidity
50933;BME280;36921;49.006;9.292;2023-03-13T00:00:11;98303.41;;;7.78;100.00
50933;BME280;36921;49.006;9.292;2023-03-13T00:02:36;98299.63;;;7.65;100.00
50933;BME280;36921;49.006;9.292;2023-03-13T00:05:01;98313.69;;;7.67;100.00
50933;BME280;36921;49.006;9.292;2023-03-13T00:07:27;98278.69;;;7.33;100.00
50933;BME280;36921;49.006;9.292;2023-03-13T00:09:53;98295.31;;;7.43;100.00
50933;BME280;36921;49.006;9.292;2023-03-13T00:12:18;98303.44;;;7.50;100.00
50933;BME280;36921;49.006;9.292;2023-03-13T00:14:44;98277.44;;;7.35;100.00
50933;BME280;36921;49.006;9.292;2023-03-13T00:17:09;98277.94;;;7.45;100.00
50933;BME280;36921;49.006;9.292;2023-03-13T00:19:34;98301.84;;;7.55;100.00
50933;BME280;36921;49.006;9.292;2023-03-13T00:22:00;98253.00;;;7.30;100.00
50933;BME280;36921;49.006;9.292;2023-03-13T00:24:25;98279.25;;;7.56;100.00
50933;BME280;36921;49.006;9.292;2023-03-13T00:26:50;98251.91;;;7.53;100.00
50933;BME280;36921;49.006;9.292;2023-03-13T00:29:15;98278.28;;;7.64;100.00
50933;BME280;36921;49.006;9.292;2023-03-13T00:31:41;98292.63;;;7.78;100.00
50933;BME280;36921;49.006;9.292;2023-03-13T00:34:06;98269.03;;;7.80;100.00
50933;BME280;36921;49.006;9.292;2023-03-13T00:36:33;98269.75;;;7.95;100.00
50933;BME280;36921;49.006;9.292;2023-03-13T00:38:59;98259.69;;;8.10;100.00
50933;BME280;36921;49.006;9.292;2023-03-13T00:41:27;98255.94;;;8.11;100.00
50933;BME280;36921;49.006;9.292;2023-03-13T00:43:53;98261.59;;;8.30;100.00
50933;BME280;36921;49.006;9.292;2023-03-13T00:46:21;98258.13;;;8.36;100.00
50933;BME280;36921;49.006;9.292;2023-03-13T00:48:47;98248.19;;;8.43;100.00
50933;BME280;36921;49.006;9.292;2023-03-13T00:51:14;98258.81;;;8.51;100.00
50933;BME280;36921;49.006;9.292;2023-03-13T00:53:40;98245.34;;;8.58;100.00
50933;BME280;36921;49.006;9.292;2023-03-13T00:56:14;98212.13;;;8.44;100.00
50933;BME280;36921;49.006;9.292;2023-03-13T00:58:41;98235.38;;;8.59;100.00
50933;BME280;36921;49.006;9.292;2023-03-13T01:01:11;98236.22;;;8.66;100.00
50933;BME280;36921;49.006;9.292;2023-03-13T01:03:38;98224.81;;;8.64;100.00
50933;BME280;36921;49.006;9.292;2023-03-13T01:06:07;98228.16;;;8.86;100.00
50933;BME280;36921;49.006;9.292;2023-03-13T01:08:33;98211.78;;;8.81;100.00
50933;BME280;36921;49.006;9.292;2023-03-13T01:11:04;98228.16;;;9.06;100.00
50933;BME280;36921;49.006;9.292;2023-03-13T01:13:31;98219.63;;;9.09;100.00
50933;BME280;36921;49.006;9.292;2023-03-13T01:16:26;98178.16;;;8.90;100.00
50933;BME280;36921;49.006;9.292;2023-03-13T01:18:56;98211.56;;;9.15;100.00
50933;BME280;36921;49.006;9.292;2023-03-13T01:21:22;98207.59;;;9.25;100.00
50933;BME280;36921;49.006;9.292;2023-03-13T01:23:49;98205.94;;;9.24;100.00
50933;BME280;36921;49.006;9.292;2023-03-13T01:26:15;98196.41;;;9.21;100.00
50933;BME280;36921;49.006;9.292;2023-03-13T01:28:41;98199.28;;;9.19;100.00
50933;BME280;36921;49.006;9.292;2023-03-13T01:31:15;98188.50;;;9.13;100.00
50933;BME280;36921;49.006;9.292;2023-03-13T01:33:43;98198.88;;;9.16;100.00
50933;BME280;36921;49.006;9.292;2023-03-13T01:36:10;98182.69;;;9.16;100.00
50933;BME280;36921;49.006;9.292;2023-03-13T01:38:37;98183.09;;;9.26;100.00
50933;BME280;36921;49.006;9.292;2023-03-13T01:41:03;98179.16;;;9.35;100.00
50933;BME280;36921;49.006;9.292;2023-03-13T01:43:31;98169.41;;;9.28;100.00
50933;BME280;36921;49.006;9.292;2023-03-13T01:46:01;98166.25;;;9.44;100.00
50933;BME280;36921;49.006;9.292;2023-03-13T01:51:02;98157.28;;;9.57;100.00
50933;BME280;36921;49.006;9.292;2023-03-13T01:53:29;98151.25;;;9.55;100.00
50933;BME280;36921;49.006;9.292;2023-03-13T01:55:56;98152.06;;;9.55;100.00
50933;BME280;36921;49.006;9.292;2023-03-13T01:58:24;98152.13;;;9.49;100.00
50933;BME280;36921;49.006;9.292;2023-03-13T02:00:50;98139.63;;;9.48;100.00
50933;BME280;36921;49.006;9.292;2023-03-13T02:03:19;98139.00;;;9.52;100.00
50933;BME280;36921;49.006;9.292;2023-03-13T02:05:46;98126.13;;;9.48;100.00
50933;BME280;36921;49.006;9.292;2023-03-13T02:08:52;98117.41;;;9.52;100.00
50933;BME280;36921;49.006;9.292;2023-03-13T02:14:07;98126.56;;;9.51;100.00
50933;BME280;36921;49.006;9.292;2023-03-13T02:16:33;98110.31;;;9.58;100.00
50933;BME280;36921;49.006;9.292;2023-03-13T02:19:01;98115.91;;;9.63;100.00
50933;BME280;36921;49.006;9.292;2023-03-13T02:24:36;98120.69;;;9.61;100.00
50933;BME280;36921;49.006;9.292;2023-03-13T02:27:06;98111.38;;;9.57;100.00
50933;BME280;36921;49.006;9.292;2023-03-13T02:29:31;98098.69;;;9.57;100.00
50933;BME280;36921;49.006;9.292;2023-03-13T02:31:57;98104.53;;;9.54;100.00
50933;BME280;36921;49.006;9.292;2023-03-13T02:34:28;98097.88;;;9.50;100.00
50933;BME280;36921;49.006;9.292;2023-03-13T02:36:57;98095.00;;;9.45;100.00
50933;BME280;36921;49.006;9.292;2023-03-13T02:39:24;98096.25;;;9.49;100.00
50933;BME280;36921;49.006;9.292;2023-03-13T02:41:51;98096.00;;;9.51;100.00
50933;BME280;36921;49.006;9.292;2023-03-13T02:44:17;98089.59;;;9.52;100.00
50933;BME280;36921;49.006;9.292;2023-03-13T02:46:50;98081.25;;;9.53;100.00
50933;BME280;36921;49.006;9.292;2023-03-13T02:49:20;98070.50;;;9.47;100.00
50933;BME280;36921;49.006;9.292;2023-03-13T02:51:46;98072.56;;;9.44;100.00
50933;BME280;36921;49.006;9.292;2023-03-13T02:54:21;98064.91;;;9.41;100.00
50933;BME280;36921;49.006;9.292;2023-03-13T02:56:51;98061.16;;;9.42;100.00
50933;BME280;36921;49.006;9.292;2023-03-13T02:59:19;98066.31;;;9.51;100.00
50933;BME280;36921;49.006;9.292;2023-03-13T03:01:44;98049.03;;;9.58;100.00
50933;BME280;36921;49.006;9.292;2023-03-13T03:04:09;98032.88;;;9.52;100.00
50933;BME280;36921;49.006;9.292;2023-03-13T03:06:35;98045.56;;;9.51;100.00
50933;BME280;36921;49.006;9.292;2023-03-13T03:09:02;98036.84;;;9.42;100.00
50933;BME280;36921;49.006;9.292;2023-03-13T03:11:27;98037.91;;;9.35;100.00
50933;BME280;36921;49.006;9.292;2023-03-13T03:13:53;98039.97;;;9.39;100.00
50933;BME280;36921;49.006;9.292;2023-03-13T03:16:18;98037.84;;;9.48;100.00
50933;BME280;36921;49.006;9.292;2023-03-13T03:18:45;98036.78;;;9.56;100.00
50933;BME280;36921;49.006;9.292;2023-03-13T03:21:11;98043.03;;;9.56;100.00
50933;BME280;36921;49.006;9.292;2023-03-13T03:23:37;98034.81;;;9.38;100.00
50933;BME280;36921;49.006;9.292;2023-03-13T03:26:04;98048.13;;;9.26;100.00
50933;BME280;36921;49.006;9.292;2023-03-13T03:28:30;98039.41;;;9.31;100.00
50933;BME280;36921;49.006;9.292;2023-03-13T03:30:56;98031.75;;;9.21;100.00
50933;BME280;36921;49.006;9.292;2023-03-13T03:33:22;98039.47;;;9.11;100.00
50933;BME280;36921;49.006;9.292;2023-03-13T03:35:48;98044.09;;;8.97;100.00
50933;BME280;36921;49.006;9.292;2023-03-13T03:38:17;98043.28;;;8.83;100.00
50933;BME280;36921;49.006;9.292;2023-03-13T03:40:42;98032.50;;;8.83;100.00
50933;BME280;36921;49.006;9.292;2023-03-13T03:43:07;98030.66;;;8.70;100.00
50933;BME280;36921;49.006;9.292;2023-03-13T03:45:33;98025.91;;;8.66;100.00
50933;BME280;36921;49.006;9.292;2023-03-13T03:47:58;98025.69;;;8.67;100.00
50933;BME280;36921;49.006;9.292;2023-03-13T03:50:25;98020.66;;;8.77;100.00
50933;BME280;36921;49.006;9.292;2023-03-13T03:52:50;98011.31;;;8.80;100.00
50933;BME280;36921;49.006;9.292;2023-03-13T03:55:16;98022.50;;;8.90;100.00
50933;BME280;36921;49.006;9.292;2023-03-13T03:57:43;98011.72;;;8.97;100.00
50933;BME280;36921;49.006;9.292;2023-03-13T04:00:09;98017.69;;;9.06;100.00
50933;BME280;36921;49.006;9.292;2023-03-13T04:02:36;98006.25;;;9.17;100.00
50933;BME280;36921;49.006;9.292;2023-03-13T04:05:02;97997.13;;;9.11;100.00
50933;BME280;36921;49.006;9.292;2023-03-13T04:07:28;98000.66;;;9.12;100.00
50933;BME280;36921;49.006;9.292;2023-03-13T04:09:53;97989.63;;;9.20;100.00
50933;BME280;36921;49.006;9.292;2023-03-13T04:12:19;97988.56;;;9.28;100.00
50933;BME280;36921;49.006;9.292;2023-03-13T04:14:44;97991.56;;;9.44;100.00
50933;BME280;36921;49.006;9.292;2023-03-13T04:17:10;97989.41;;;9.60;100.00
50933;BME280;36921;49.006;9.292;2023-03-13T04:19:35;97978.56;;;9.66;100.00
50933;BME280;36921;49.006;9.292;2023-03-13T04:22:01;97984.81;;;9.67;100.00
50933;BME280;36921;49.006;9.292;2023-03-13T04:24:26;97978.56;;;9.66;100.00
50933;BME280;36921;49.006;9.292;2023-03-13T04:26:51;97978.16;;;9.63;100.00
50933;BME280;36921;49.006;9.292;2023-03-13T04:29:17;97971.31;;;9.67;100.00
50933;BME280;36921;49.006;9.292;2023-03-13T04:31:42;97973.16;;;9.66;100.00
50933;BME280;36921;49.006;9.292;2023-03-13T04:34:08;97972.69;;;9.76;100.00
50933;BME280;36921;49.006;9.292;2023-03-13T04:36:33;97980.97;;;9.81;100.00
50933;BME280;36921;49.006;9.292;2023-03-13T04:38:58;97973.81;;;9.94;100.00
50933;BME280;36921;49.006;9.292;2023-03-13T04:41:24;97967.59;;;9.93;100.00
50933;BME280;36921;49.006;9.292;2023-03-13T04:43:49;97973.53;;;10.02;100.00
50933;BME280;36921;49.006;9.292;2023-03-13T04:46:15;97970.38;;;10.05;100.00
50933;BME280;36921;49.006;9.292;2023-03-13T04:48:40;97978.72;;;10.03;100.00
50933;BME280;36921;49.006;9.292;2023-03-13T04:51:06;97965.22;;;10.03;100.00
50933;BME280;36921;49.006;9.292;2023-03-13T04:53:31;97972.66;;;10.08;100.00
50933;BME280;36921;49.006;9.292;2023-03-13T04:55:56;97978.88;;;10.08;100.00
50933;BME280;36921;49.006;9.292;2023-03-13T04:58:22;97978.03;;;10.08;100.00
50933;BME280;36921;49.006;9.292;2023-03-13T05:00:47;97967.03;;;10.09;100.00
50933;BME280;36921;49.006;9.292;2023-03-13T05:03:12;97979.47;;;10.10;100.00
50933;BME280;36921;49.006;9.292;2023-03-13T05:05:38;97960.81;;;10.09;100.00
50933;BME280;36921;49.006;9.292;2023-03-13T05:08:04;97969.72;;;10.09;100.00
50933;BME280;36921;49.006;9.292;2023-03-13T05:10:30;97962.88;;;10.07;100.00
50933;BME280;36921;49.006;9.292;2023-03-13T05:12:55;97956.44;;;10.08;100.00
50933;BME280;36921;49.006;9.292;2023-03-13T05:15:21;97968.50;;;10.05;100.00
50933;BME280;36921;49.006;9.292;2023-03-13T05:17:46;97964.19;;;9.98;100.00
50933;BME280;36921;49.006;9.292;2023-03-13T05:20:11;97956.00;;;9.86;100.00
50933;BME280;36921;49.006;9.292;2023-03-13T05:22:37;97963.09;;;9.80;100.00
50933;BME280;36921;49.006;9.292;2023-03-13T05:25:03;97950.63;;;9.79;100.00
50933;BME280;36921;49.006;9.292;2023-03-13T05:27:30;97959.50;;;9.86;100.00
50933;BME280;36921;49.006;9.292;2023-03-13T05:29:55;97959.69;;;9.92;100.00
50933;BME280;36921;49.006;9.292;2023-03-13T05:32:21;97962.09;;;10.00;100.00
50933;BME280;36921;49.006;9.292;2023-03-13T05:34:46;97955.69;;;10.01;100.00
50933;BME280;36921;49.006;9.292;2023-03-13T05:37:12;97946.69;;;10.07;100.00
50933;BME280;36921;49.006;9.292;2023-03-13T05:39:37;97947.38;;;10.27;100.00
50933;BME280;36921;49.006;9.292;2023-03-13T05:42:02;97946.31;;;10.47;100.00
50933;BME280;36921;49.006;9.292;2023-03-13T05:44:28;97954.91;;;10.62;100.00
50933;BME280;36921;49.006;9.292;2023-03-13T05:46:53;97958.75;;;10.73;100.00
50933;BME280;36921;49.006;9.292;2023-03-13T05:49:22;97949.19;;;10.89;100.00
50933;BME280;36921;49.006;9.292;2023-03-13T05:51:47;97937.44;;;10.95;100.00
50933;BME280;36921;49.006;9.292;2023-03-13T05:54:13;97935.34;;;10.97;100.00
50933;BME280;36921;49.006;9.292;2023-03-13T05:56:38;97944.84;;;10.88;100.00
50933;BME280;36921;49.006;9.292;2023-03-13T05:59:04;97947.25;;;10.78;100.00
50933;BME280;36921;49.006;9.292;2023-03-13T06:01:30;97940.63;;;10.73;100.00
50933;BME280;36921;49.006;9.292;2023-03-13T06:03:55;97946.44;;;10.77;100.00
50933;BME280;36921;49.006;9.292;2023-03-13T06:06:21;97937.47;;;10.77;100.00
50933;BME280;36921;49.006;9.292;2023-03-13T06:08:46;97940.31;;;10.82;100.00
50933;BME280;36921;49.006;9.292;2023-03-13T06:11:11;97946.94;;;10.86;100.00
50933;BME280;36921;49.006;9.292;2023-03-13T06:13:37;97949.56;;;10.92;100.00
50933;BME280;36921;49.006;9.292;2023-03-13T06:16:03;97927.47;;;10.95;100.00
50933;BME280;36921;49.006;9.292;2023-03-13T06:18:28;97940.25;;;11.07;100.00
50933;BME280;36921;49.006;9.292;2023-03-13T06:20:58;97928.72;;;11.11;100.00
50933;BME280;36921;49.006;9.292;2023-03-13T06:23:24;97928.03;;;11.16;100.00
50933;BME280;36921;49.006;9.292;2023-03-13T06:25:50;97935.00;;;11.24;100.00
50933;BME280;36921;49.006;9.292;2023-03-13T06:28:15;97903.81;;;11.21;100.00
50933;BME280;36921;49.006;9.292;2023-03-13T06:30:41;97934.00;;;11.36;100.00
50933;BME280;36921;49.006;9.292;2023-03-13T06:33:07;97929.53;;;11.42;100.00
50933;BME280;36921;49.006;9.292;2023-03-13T06:35:32;97917.81;;;11.48;100.00
50933;BME280;36921;49.006;9.292;2023-03-13T06:37:58;97923.38;;;11.53;100.00
50933;BME280;36921;49.006;9.292;2023-03-13T06:40:23;97927.03;;;11.59;100.00
50933;BME280;36921;49.006;9.292;2023-03-13T06:42:49;97927.97;;;11.65;100.00
50933;BME280;36921;49.006;9.292;2023-03-13T06:45:14;97941.38;;;11.59;100.00
50933;BME280;36921;49.006;9.292;2023-03-13T06:47:40;97937.84;;;11.59;100.00
50933;BME280;36921;49.006;9.292;2023-03-13T06:50:06;97935.84;;;11.54;100.00
50933;BME280;36921;49.006;9.292;2023-03-13T06:52:31;97950.44;;;11.53;100.00
50933;BME280;36921;49.006;9.292;2023-03-13T06:54:57;97934.81;;;11.55;100.00
50933;BME280;36921;49.006;9.292;2023-03-13T06:57:22;97935.84;;;11.54;100.00
50933;BME280;36921;49.006;9.292;2023-03-13T06:59:48;97939.75;;;11.58;100.00
50933;BME280;36921;49.006;9.292;2023-03-13T07:02:14;97952.81;;;11.61;100.00
50933;BME280;36921;49.006;9.292;2023-03-13T07:04:39;97946.94;;;11.65;100.00
50933;BME280;36921;49.006;9.292;2023-03-13T07:07:05;97951.44;;;11.71;100.00
50933;BME280;36921;49.006;9.292;2023-03-13T07:09:30;97946.59;;;11.73;100.00
50933;BME280;36921;49.006;9.292;2023-03-13T07:11:56;97955.19;;;11.70;100.00
50933;BME280;36921;49.006;9.292;2023-03-13T07:14:23;97951.44;;;11.71;100.00
50933;BME280;36921;49.006;9.292;2023-03-13T07:16:48;97957.22;;;11.74;100.00
50933;BME280;36921;49.006;9.292;2023-03-13T07:19:14;97951.13;;;11.79;100.00
50933;BME280;36921;49.006;9.292;2023-03-13T07:21:40;97954.28;;;11.76;100.00
50933;BME280;36921;49.006;9.292;2023-03-13T07:24:06;97951.53;;;11.64;100.00
50933;BME280;36921;49.006;9.292;2023-03-13T07:26:31;97947.28;;;11.56;100.00
50933;BME280;36921;49.006;9.292;2023-03-13T07:29:09;97939.16;;;11.56;100.00
50933;BME280;36921;49.006;9.292;2023-03-13T07:32:05;97942.47;;;11.58;100.00
50933;BME280;36921;49.006;9.292;2023-03-13T07:34:31;97928.59;;;11.36;100.00
50933;BME280;36921;49.006;9.292;2023-03-13T07:36:56;97930.59;;;11.29;100.00
50933;BME280;36921;49.006;9.292;2023-03-13T07:39:22;97925.09;;;11.17;100.00
50933;BME280;36921;49.006;9.292;2023-03-13T07:41:47;97919.00;;;11.22;100.00
50933;BME280;36921;49.006;9.292;2023-03-13T07:44:12;97926.94;;;11.35;100.00
50933;BME280;36921;49.006;9.292;2023-03-13T07:46:38;97905.16;;;11.42;100.00
50933;BME280;36921;49.006;9.292;2023-03-13T07:49:03;97910.28;;;11.50;100.00
50933;BME280;36921;49.006;9.292;2023-03-13T07:51:28;97901.94;;;11.63;100.00
50933;BME280;36921;49.006;9.292;2023-03-13T07:53:54;97894.16;;;11.67;100.00
50933;BME280;36921;49.006;9.292;2023-03-13T07:56:22;97903.63;;;11.76;100.00
50933;BME280;36921;49.006;9.292;2023-03-13T07:58:48;97883.69;;;11.71;100.00
50933;BME280;36921;49.006;9.292;2023-03-13T08:01:16;97907.56;;;11.92;100.00
50933;BME280;36921;49.006;9.292;2023-03-13T08:03:43;97899.78;;;11.96;100.00
50933;BME280;36921;49.006;9.292;2023-03-13T08:06:11;97913.22;;;12.14;100.00
50933;BME280;36921;49.006;9.292;2023-03-13T08:08:39;97903.94;;;12.22;100.00
50933;BME280;36921;49.006;9.292;2023-03-13T08:11:07;97886.69;;;12.28;100.00
50933;BME280;36921;49.006;9.292;2023-03-13T08:13:34;97880.41;;;12.63;100.00
50933;BME280;36921;49.006;9.292;2023-03-13T08:16:29;97880.09;;;12.88;100.00
50933;BME280;36921;49.006;9.292;2023-03-13T08:19:14;97870.63;;;13.02;100.00
50933;BME280;36921;49.006;9.292;2023-03-13T08:21:39;97862.03;;;13.22;100.00
50933;BME280;36921;49.006;9.292;2023-03-13T08:24:06;97842.19;;;13.50;100.00
50933;BME280;36921;49.006;9.292;2023-03-13T08:26:33;97845.56;;;13.57;100.00
50933;BME280;36921;49.006;9.292;2023-03-13T08:29:03;97850.75;;;13.93;100.00
50933;BME280;36921;49.006;9.292;2023-03-13T08:31:36;97856.25;;;14.15;100.00
50933;BME280;36921;49.006;9.292;2023-03-13T08:34:02;97835.31;;;14.15;100.00
50933;BME280;36921;49.006;9.292;2023-03-13T08:36:33;97861.91;;;14.91;100.00
50933;BME280;36921;49.006;9.292;2023-03-13T08:39:04;97863.50;;;15.68;100.00
50933;BME280;36921;49.006;9.292;2023-03-13T08:41:37;97863.25;;;16.44;100.00
50933;BME280;36921;49.006;9.292;2023-03-13T08:44:05;97869.72;;;16.28;100.00
50933;BME280;36921;49.006;9.292;2023-03-13T08:46:32;97852.31;;;15.65;100.00
50933;BME280;36921;49.006;9.292;2023-03-13T08:48:58;97858.97;;;14.98;100.00
50933;BME280;36921;49.006;9.292;2023-03-13T08:52:05;97870.78;;;14.59;100.00
50933;BME280;36921;49.006;9.292;2023-03-13T08:55:30;97831.50;;;14.33;100.00
50933;BME280;36921;49.006;9.292;2023-03-13T08:58:14;97783.41;;;14.00;100.00
50933;BME280;36921;49.006;9.292;2023-03-13T09:00:46;97762.78;;;14.04;100.00
50933;BME280;36921;49.006;9.292;2023-03-13T09:03:11;97825.63;;;14.24;100.00
50933;BME280;36921;49.006;9.292;2023-03-13T09:05:37;97812.91;;;14.30;100.00
50933;BME280;36921;49.006;9.292;2023-03-13T09:08:02;97867.91;;;14.49;100.00
50933;BME280;36921;49.006;9.292;2023-03-13T09:10:28;97851.44;;;14.39;100.00
50933;BME280;36921;49.006;9.292;2023-03-13T09:12:53;97823.00;;;14.30;100.00
50933;BME280;36921;49.006;9.292;2023-03-13T09:15:19;97858.34;;;14.30;100.00
50933;BME280;36921;49.006;9.292;2023-03-13T09:17:44;97840.84;;;14.20;100.00
50933;BME280;36921;49.006;9.292;2023-03-13T09:20:10;97853.19;;;14.11;100.00
50933;BME280;36921;49.006;9.292;2023-03-13T09:22:35;97841.25;;;14.12;100.00
50933;BME280;36921;49.006;9.292;2023-03-13T09:25:00;97834.53;;;14.20;100.00
50933;BME280;36921;49.006;9.292;2023-03-13T09:27:26;97839.59;;;14.28;100.00
50933;BME280;36921;49.006;9.292;2023-03-13T09:29:52;97833.44;;;14.55;100.00
50933;BME280;36921;49.006;9.292;2023-03-13T09:32:18;97842.47;;;14.82;100.00
50933;BME280;36921;49.006;9.292;2023-03-13T09:34:45;97852.78;;;15.02;100.00
50933;BME280;36921;49.006;9.292;2023-03-13T09:37:10;97838.50;;;14.68;100.00
50933;BME280;36921;49.006;9.292;2023-03-13T09:39:36;97872.56;;;14.71;100.00
50933;BME280;36921;49.006;9.292;2023-03-13T09:42:14;97877.06;;;14.60;100.00
50933;BME280;36921;49.006;9.292;2023-03-13T09:45:07;97877.28;;;14.58;100.00
50933;BME280;36921;49.006;9.292;2023-03-13T09:47:53;97859.19;;;14.69;100.00
50933;BME280;36921;49.006;9.292;2023-03-13T09:50:43;97868.31;;;14.80;100.00
50933;BME280;36921;49.006;9.292;2023-03-13T09:53:19;97850.66;;;15.64;100.00
50933;BME280;36921;49.006;9.292;2023-03-13T09:55:48;97846.31;;;16.42;100.00
50933;BME280;36921;49.006;9.292;2023-03-13T09:58:17;97837.13;;;17.22;100.00
50933;BME280;36921;49.006;9.292;2023-03-13T10:00:57;97834.94;;;17.19;100.00
50933;BME280;36921;49.006;9.292;2023-03-13T10:03:28;97832.78;;;17.62;100.00
50933;BME280;36921;49.006;9.292;2023-03-13T10:05:56;97815.53;;;17.41;100.00
50933;BME280;36921;49.006;9.292;2023-03-13T10:08:25;97814.47;;;17.67;100.00
50933;BME280;36921;49.006;9.292;2023-03-13T10:13:59;97811.19;;;18.06;100.00
50933;BME280;36921;49.006;9.292;2023-03-13T10:16:30;97802.81;;;19.57;100.00
50933;BME280;36921;49.006;9.292;2023-03-13T10:19:07;97796.41;;;21.59;83.04
50933;BME280;36921;49.006;9.292;2023-03-13T10:21:35;97790.16;;;25.51;61.72
50933;BME280;36921;49.006;9.292;2023-03-13T10:24:04;97784.72;;;27.64;53.02
50933;BME280;36921;49.006;9.292;2023-03-13T10:26:36;97773.97;;;29.27;47.67
50933;BME280;36921;49.006;9.292;2023-03-13T10:29:20;97773.41;;;28.97;47.82
50933;BME280;36921;49.006;9.292;2023-03-13T10:34:24;97756.50;;;28.78;46.11
50933;BME280;36921;49.006;9.292;2023-03-13T10:36:56;97754.03;;;29.54;44.26
50933;BME280;36921;49.006;9.292;2023-03-13T10:39:23;97757.75;;;26.72;48.05
50933;BME280;36921;49.006;9.292;2023-03-13T10:41:49;97753.66;;;28.16;46.94
50933;BME280;36921;49.006;9.292;2023-03-13T10:44:22;97758.69;;;30.34;43.29
50933;BME280;36921;49.006;9.292;2023-03-13T10:46:48;97735.25;;;29.95;43.63
50933;BME280;36921;49.006;9.292;2023-03-13T10:51:48;97745.19;;;27.59;46.83
50933;BME280;36921;49.006;9.292;2023-03-13T10:56:47;97743.13;;;27.56;47.18
50933;BME280;36921;49.006;9.292;2023-03-13T10:59:24;97739.31;;;28.88;45.52
50933;BME280;36921;49.006;9.292;2023-03-13T11:01:51;97733.59;;;30.06;42.44
50933;BME280;36921;49.006;9.292;2023-03-13T11:04:29;97734.28;;;28.08;44.96
50933;BME280;36921;49.006;9.292;2023-03-13T11:07:04;97743.03;;;28.55;44.66
50933;BME280;36921;49.006;9.292;2023-03-13T11:09:30;97732.59;;;28.52;45.51
50933;BME280;36921;49.006;9.292;2023-03-13T11:12:05;97732.19;;;29.56;44.14
50933;BME280;36921;49.006;9.292;2023-03-13T11:14:33;97742.44;;;29.52;43.39
50933;BME280;36921;49.006;9.292;2023-03-13T11:17:04;97729.94;;;30.33;42.37
50933;BME280;36921;49.006;9.292;2023-03-13T11:19:48;97736.38;;;27.78;44.62
50933;BME280;36921;49.006;9.292;2023-03-13T11:22:24;97727.72;;;24.27;51.33
50933;BME280;36921;49.006;9.292;2023-03-13T11:25:19;97714.69;;;22.84;56.84
50933;BME280;36921;49.006;9.292;2023-03-13T11:27:57;97712.72;;;22.20;60.48
50933;BME280;36921;49.006;9.292;2023-03-13T11:33:11;97684.97;;;22.30;63.69
50933;BME280;36921;49.006;9.292;2023-03-13T11:35:47;97704.41;;;24.59;58.00
50933;BME280;36921;49.006;9.292;2023-03-13T11:38:17;97681.31;;;27.59;50.03
50933;BME280;36921;49.006;9.292;2023-03-13T11:44:09;97685.50;;;24.04;55.84
50933;BME280;36921;49.006;9.292;2023-03-13T11:46:52;97674.69;;;23.76;57.83
50933;BME280;36921;49.006;9.292;2023-03-13T11:49:28;97659.72;;;26.30;50.76
50933;BME280;36921;49.006;9.292;2023-03-13T11:52:07;97663.91;;;24.81;53.53
50933;BME280;36921;49.006;9.292;2023-03-13T11:54:49;97655.13;;;24.13;55.88
50933;BME280;36921;49.006;9.292;2023-03-13T11:57:28;97652.44;;;24.21;56.06
50933;BME280;36921;49.006;9.292;2023-03-13T12:02:56;97627.00;;;22.94;59.42
50933;BME280;36921;49.006;9.292;2023-03-13T12:05:24;97618.34;;;24.78;56.49
50933;BME280;36921;49.006;9.292;2023-03-13T12:08:02;97599.13;;;25.81;52.21
50933;BME280;36921;49.006;9.292;2023-03-13T12:10:33;97598.50;;;27.06;49.12
50933;BME280;36921;49.006;9.292;2023-03-13T12:26:02;97585.31;;;24.47;52.02
50933;BME280;36921;49.006;9.292;2023-03-13T12:28:44;97563.84;;;25.61;50.84
50933;BME280;36921;49.006;9.292;2023-03-13T12:31:25;97546.69;;;25.67;50.91
50933;BME280;36921;49.006;9.292;2023-03-13T12:36:32;97535.81;;;25.24;52.04
50933;BME280;36921;49.006;9.292;2023-03-13T12:39:16;97534.50;;;25.12;52.23
50933;BME280;36921;49.006;9.292;2023-03-13T12:42:12;97520.41;;;25.82;49.94
50933;BME280;36921;49.006;9.292;2023-03-13T12:44:41;97498.78;;;25.37;50.22
50933;BME280;36921;49.006;9.292;2023-03-13T12:47:30;97504.75;;;26.58;47.69
50933;BME280;36921;49.006;9.292;2023-03-13T12:52:49;97487.50;;;26.85;47.61
50933;BME280;36921;49.006;9.292;2023-03-13T12:55:22;97473.31;;;27.11;47.92
50933;BME280;36921;49.006;9.292;2023-03-13T12:58:08;97458.69;;;28.37;45.32
50933;BME280;36921;49.006;9.292;2023-03-13T13:00:36;97455.31;;;28.04;44.22
50933;BME280;36921;49.006;9.292;2023-03-13T13:03:33;97442.63;;;26.96;45.05
50933;BME280;36921;49.006;9.292;2023-03-13T13:06:14;97448.84;;;27.50;45.54
50933;BME280;36921;49.006;9.292;2023-03-13T13:08:41;97449.41;;;27.68;44.89
50933;BME280;36921;49.006;9.292;2023-03-13T13:13:58;97424.03;;;25.37;48.06
50933;BME280;36921;49.006;9.292;2023-03-13T13:16:24;97424.81;;;24.35;50.62
50933;BME280;36921;49.006;9.292;2023-03-13T13:18:50;97403.34;;;23.97;51.01
50933;BME280;36921;49.006;9.292;2023-03-13T13:23:43;97405.78;;;24.24;51.54
50933;BME280;36921;49.006;9.292;2023-03-13T13:28:48;97378.66;;;23.83;51.90
50933;BME280;36921;49.006;9.292;2023-03-13T13:37:46;97363.81;;;23.44;54.92
50933;BME280;36921;49.006;9.292;2023-03-13T13:42:47;97340.25;;;24.81;51.53
50933;BME280;36921;49.006;9.292;2023-03-13T13:47:40;97343.38;;;25.09;50.41
50933;BME280;36921;49.006;9.292;2023-03-13T13:50:26;97327.22;;;26.24;48.92
50933;BME280;36921;49.006;9.292;2023-03-13T13:53:31;97329.91;;;26.45;48.26
50933;BME280;36921;49.006;9.292;2023-03-13T13:55:57;97318.72;;;26.42;48.05
50933;BME280;36921;49.006;9.292;2023-03-13T13:58:26;97318.81;;;26.33;47.58
50933;BME280;36921;49.006;9.292;2023-03-13T14:00:59;97317.19;;;26.32;48.21
50933;BME280;36921;49.006;9.292;2023-03-13T14:03:28;97298.19;;;26.10;47.73
50933;BME280;36921;49.006;9.292;2023-03-13T14:06:02;97311.41;;;25.29;49.59
50933;BME280;36921;49.006;9.292;2023-03-13T14:08:30;97300.22;;;25.17;50.40
50933;BME280;36921;49.006;9.292;2023-03-13T14:11:49;97300.25;;;25.58;49.53